Aérodrome :
LOGIN :

S'inscrire | Disclaimer

   EN    FR    IT 

 










Légende :    VFR   VFR Marginal   IFR   IFR Intensif   IFR Très Intensif
Visi : 
Plafond : 
>= 8 km
>= 3000ft
5 à 8 km
1000 à 3000 ft
1500m à 5 km
500 à 1000 ft
800 à 1500m
200 à 500 ft
< 800m
< 200 ft
Symboles :   Orages  Brouillard  Fortes neiges  Fortes précipitations  Vent > 20 kt
SIGMETs :   Divers  Orages  Givrage  Turbulence  Onde Orograph.  Cendres Volcan.






- Altitude de l'aérodrome : 640 ft
- Code IATA : AOC


EDAC - Altenburg-Nobitz

DERNIER METAR :
  • 110750Z 21008KT CAVOK 02/M04 Q1015

METARs EXPIRÉS :
  • 110720Z AUTO 22008KT 9999 // OVC120/// 02/M04 Q1015
  • 110650Z AUTO 20008KT 9999 // BKN130/// OVC170/// 02/M04 Q1015
  • 110620Z AUTO 21008KT 9999 // FEW120/// OVC170/// 02/M04 Q1014
  • 110550Z AUTO 20009KT 9999 // FEW120/// OVC180/// 02/M04 Q1014
  • 110520Z AUTO 19008KT 160V230 9999 // OVC180/// 02/M04 Q1015

Prévision TAF périmée.



MET'MAP, la Météo Aéronautique d'un coup d'oeil ! - Copyright ORBIFLY Décembre 2007 - Disclaimer

ORBIFLY MET'MAP TEAM :

Programmation & Développement : Alexandra Zaïnal
Sur une idée originale de : Baudouin d'Aumeries
Assistance à la programmation : Marc-Olivier Méhu
Soutien technique & logistique : Manuel Goepfert

Contact : metmap@orbifly.com




SOURCES & CREDITS :

   NOAA